createdAt,value
2023-04-03T00:01:25.414Z,8.90
2023-04-03T00:03:53.570Z,8.89
2023-04-03T00:06:22.888Z,8.92
2023-04-03T00:08:50.918Z,8.92
2023-04-03T00:11:19.690Z,8.69
2023-04-03T00:13:47.693Z,8.72
2023-04-03T00:16:16.222Z,8.53
2023-04-03T00:18:44.813Z,8.34
2023-04-03T00:21:15.515Z,8.23
2023-04-03T00:23:44.851Z,8.05
2023-04-03T00:26:12.973Z,7.98
2023-04-03T00:28:40.991Z,7.89
2023-04-03T00:31:08.912Z,7.93
2023-04-03T00:33:36.864Z,7.94
2023-04-03T00:36:09.098Z,7.82
2023-04-03T00:38:37.095Z,7.97
2023-04-03T00:41:06.696Z,7.99
2023-04-03T00:43:34.806Z,7.73
2023-04-03T00:46:02.952Z,7.95
2023-04-03T00:48:34.573Z,7.95
2023-04-03T00:51:04.600Z,7.84
2023-04-03T00:53:35.760Z,7.83
2023-04-03T00:56:07.609Z,7.69
2023-04-03T00:58:41.868Z,7.55
2023-04-03T01:01:17.047Z,7.65
2023-04-03T01:03:45.132Z,7.62
2023-04-03T01:06:13.474Z,7.52
2023-04-03T01:08:41.386Z,7.59
2023-04-03T01:11:09.249Z,7.54
2023-04-03T01:13:38.545Z,7.71
2023-04-03T01:16:07.870Z,7.73
2023-04-03T01:18:39.458Z,7.78
2023-04-03T01:21:42.271Z,7.73
2023-04-03T01:24:29.786Z,7.63
2023-04-03T01:26:57.993Z,7.56
2023-04-03T01:29:27.822Z,7.51
2023-04-03T01:31:59.212Z,7.49
2023-04-03T01:34:28.038Z,7.41
2023-04-03T01:36:56.283Z,7.31
2023-04-03T01:39:24.624Z,7.23
2023-04-03T01:41:53.079Z,7.13
2023-04-03T01:44:21.066Z,7.16
2023-04-03T01:46:49.052Z,7.07
2023-04-03T01:49:18.316Z,7.00
2023-04-03T01:51:46.242Z,7.00
2023-04-03T01:54:14.359Z,7.00
2023-04-03T01:56:42.440Z,6.90
2023-04-03T01:59:10.516Z,6.89
2023-04-03T02:01:38.573Z,6.85
2023-04-03T02:04:06.577Z,6.88
2023-04-03T02:06:35.968Z,6.89
2023-04-03T02:09:03.967Z,6.95
2023-04-03T02:11:32.072Z,6.87
2023-04-03T02:13:59.960Z,6.86
2023-04-03T02:16:27.945Z,6.85
2023-04-03T02:18:55.840Z,6.66
2023-04-03T02:21:23.939Z,6.63
2023-04-03T02:23:53.255Z,6.66
2023-04-03T02:26:21.154Z,6.57
2023-04-03T02:28:49.122Z,6.44
2023-04-03T02:31:17.079Z,6.38
2023-04-03T02:33:45.014Z,6.26
2023-04-03T02:36:12.883Z,6.18
2023-04-03T02:38:40.916Z,6.13
2023-04-03T02:41:12.432Z,6.09
2023-04-03T02:43:41.020Z,6.02
2023-04-03T02:46:09.056Z,6.08
2023-04-03T02:48:37.388Z,5.89
2023-04-03T02:51:05.659Z,5.80
2023-04-03T02:53:33.635Z,5.77
2023-04-03T02:56:01.524Z,5.92
2023-04-03T02:58:31.171Z,5.91
2023-04-03T03:00:59.116Z,5.86
2023-04-03T03:03:27.089Z,5.88
2023-04-03T03:06:03.633Z,5.75
2023-04-03T03:08:31.505Z,5.94
2023-04-03T03:10:59.443Z,5.81
2023-04-03T03:13:28.160Z,5.88
2023-04-03T03:15:57.941Z,5.75
2023-04-03T03:18:26.354Z,5.82
2023-04-03T03:20:55.102Z,5.80
2023-04-03T03:23:23.918Z,5.87
2023-04-03T03:25:56.449Z,5.69
2023-04-03T03:28:24.511Z,5.80
2023-04-03T03:30:52.527Z,5.72
2023-04-03T03:33:21.819Z,5.57
2023-04-03T03:35:49.794Z,5.79
2023-04-03T03:38:17.769Z,5.89
2023-04-03T03:40:45.644Z,5.78
2023-04-03T03:43:13.585Z,5.72
2023-04-03T03:45:41.672Z,5.68
2023-04-03T03:48:10.510Z,5.65
2023-04-03T03:50:39.901Z,5.65
2023-04-03T03:53:07.760Z,5.62
2023-04-03T03:55:36.167Z,5.58
2023-04-03T03:58:04.552Z,5.22
2023-04-03T04:00:33.124Z,5.37
2023-04-03T04:03:01.957Z,5.57
2023-04-03T04:05:30.164Z,5.55
2023-04-03T04:07:59.465Z,5.49
2023-04-03T04:10:27.386Z,5.51
2023-04-03T04:12:56.837Z,5.49
2023-04-03T04:15:26.828Z,5.51
2023-04-03T04:17:55.391Z,5.47
2023-04-03T04:20:23.710Z,5.38
2023-04-03T04:22:51.662Z,5.59
2023-04-03T04:25:21.159Z,5.62
2023-04-03T04:27:49.027Z,5.64
2023-04-03T04:30:17.223Z,5.76
2023-04-03T04:32:45.229Z,5.82
2023-04-03T04:35:16.165Z,5.88
2023-04-03T04:37:44.786Z,5.84
2023-04-03T04:40:13.364Z,5.86
2023-04-03T04:42:42.623Z,5.83
2023-04-03T04:45:11.470Z,5.80
2023-04-03T04:47:39.441Z,5.84
2023-04-03T04:50:08.386Z,5.72
2023-04-03T04:52:36.289Z,5.89
2023-04-03T04:55:04.505Z,5.96
2023-04-03T04:57:32.643Z,6.04
2023-04-03T05:00:02.090Z,6.05
2023-04-03T05:02:30.176Z,6.03
2023-04-03T05:04:58.085Z,6.15
2023-04-03T05:07:26.819Z,6.14
2023-04-03T05:09:54.727Z,6.26
2023-04-03T05:12:23.049Z,6.27
2023-04-03T05:14:50.997Z,6.32
2023-04-03T05:17:20.423Z,6.41
2023-04-03T05:19:48.565Z,6.46
2023-04-03T05:22:16.555Z,6.47
2023-04-03T05:24:44.484Z,6.57
2023-04-03T05:27:12.389Z,6.64
2023-04-03T05:29:40.756Z,6.74
2023-04-03T05:32:08.686Z,6.79
2023-04-03T05:34:38.399Z,6.90
2023-04-03T05:37:06.417Z,6.82
2023-04-03T05:39:35.274Z,6.87
2023-04-03T05:42:03.196Z,6.99
2023-04-03T05:44:31.158Z,7.06
2023-04-03T05:46:59.149Z,7.01
2023-04-03T05:49:27.383Z,7.19
2023-04-03T05:51:56.663Z,7.23
2023-04-03T05:54:26.895Z,7.29
2023-04-03T05:56:55.078Z,7.33
2023-04-03T05:59:23.277Z,7.42
2023-04-03T06:01:51.898Z,7.45
2023-04-03T06:04:20.287Z,7.44
2023-04-03T06:06:50.526Z,7.43
2023-04-03T06:09:21.385Z,7.53
2023-04-03T06:11:49.713Z,7.47
2023-04-03T06:14:17.654Z,7.58
2023-04-03T06:16:47.070Z,7.56
2023-04-03T06:19:15.100Z,7.58
2023-04-03T06:21:43.592Z,7.76
2023-04-03T06:24:14.571Z,7.87
2023-04-03T06:26:44.072Z,8.01
2023-04-03T06:29:12.245Z,8.10
2023-04-03T06:31:40.790Z,8.22
2023-04-03T06:34:09.874Z,8.19
2023-04-03T06:36:39.715Z,8.22
2023-04-03T06:39:08.071Z,8.21
2023-04-03T06:41:37.211Z,8.40
2023-04-03T06:44:07.367Z,8.45
2023-04-03T06:46:35.324Z,8.56
2023-04-03T06:49:08.357Z,8.58
2023-04-03T06:51:37.888Z,8.54
2023-04-03T06:54:09.226Z,8.67
2023-04-03T06:56:37.335Z,8.75
2023-04-03T06:59:06.652Z,8.83
2023-04-03T07:01:35.114Z,8.65
2023-04-03T07:04:03.287Z,8.65
2023-04-03T07:06:32.085Z,8.84
2023-04-03T07:09:00.110Z,8.92
2023-04-03T07:11:29.300Z,9.00
2023-04-03T07:13:57.666Z,8.96
2023-04-03T07:16:27.199Z,8.91
2023-04-03T07:18:55.164Z,8.99
2023-04-03T07:21:23.468Z,9.02
2023-04-03T07:23:51.878Z,8.90
2023-04-03T07:26:21.810Z,8.83
2023-04-03T07:28:51.018Z,9.00
2023-04-03T07:31:19.857Z,9.02
2023-04-03T07:33:49.432Z,9.11
2023-04-03T07:36:20.982Z,9.09
2023-04-03T07:38:48.895Z,9.26
2023-04-03T07:41:18.864Z,9.45
2023-04-03T07:43:47.598Z,9.48
2023-04-03T07:46:15.938Z,9.64
2023-04-03T07:48:43.871Z,9.98
2023-04-03T07:51:14.072Z,10.02
2023-04-03T07:53:42.000Z,10.17
2023-04-03T07:56:10.827Z,10.20
2023-04-03T07:58:39.312Z,10.37
2023-04-03T08:01:07.309Z,10.45
2023-04-03T08:03:35.573Z,10.29
2023-04-03T08:06:06.172Z,10.38
2023-04-03T08:08:36.791Z,10.56
2023-04-03T08:11:06.693Z,10.68
2023-04-03T08:13:35.884Z,10.68
2023-04-03T08:16:10.424Z,10.52
2023-04-03T08:18:38.416Z,10.64
2023-04-03T08:21:09.320Z,10.57
2023-04-03T08:23:39.532Z,10.56
2023-04-03T08:26:09.232Z,10.72
2023-04-03T08:28:37.284Z,10.88
2023-04-03T08:31:08.166Z,11.17
2023-04-03T08:33:37.468Z,11.19
2023-04-03T08:36:06.599Z,11.19
2023-04-03T08:38:35.040Z,11.20
2023-04-03T08:41:09.643Z,11.31
2023-04-03T08:43:45.222Z,11.34
2023-04-03T08:46:19.134Z,11.56
2023-04-03T08:48:48.454Z,11.30
2023-04-03T08:51:19.638Z,11.54
2023-04-03T08:53:57.846Z,11.69
2023-04-03T08:56:28.497Z,11.82
2023-04-03T08:59:00.365Z,11.81
2023-04-03T09:01:36.000Z,12.04
2023-04-03T09:04:06.476Z,12.26
2023-04-03T09:06:35.135Z,12.28
2023-04-03T09:09:14.425Z,12.07
2023-04-03T09:11:54.709Z,12.19
2023-04-03T09:14:33.016Z,12.34
2023-04-03T09:17:04.316Z,12.31
2023-04-03T09:19:44.138Z,12.41
2023-04-03T09:22:18.805Z,12.45
2023-04-03T09:24:49.246Z,12.62
2023-04-03T09:29:47.196Z,12.71
2023-04-03T09:32:24.168Z,12.96
2023-04-03T09:35:20.683Z,13.24
2023-04-03T09:37:53.345Z,13.27
2023-04-03T09:40:52.193Z,13.53
2023-04-03T09:43:31.554Z,13.69
2023-04-03T09:46:20.987Z,13.79
2023-04-03T09:49:07.528Z,14.00
2023-04-03T09:51:37.844Z,13.88
2023-04-03T09:54:28.739Z,13.94
2023-04-03T09:56:58.192Z,13.82
2023-04-03T09:59:27.543Z,14.04
2023-04-03T10:02:02.642Z,13.84
2023-04-03T10:04:40.926Z,13.80
2023-04-03T10:07:31.533Z,13.69
2023-04-03T10:10:21.081Z,13.64
2023-04-03T10:12:52.303Z,13.37
2023-04-03T10:15:22.622Z,13.40
2023-04-03T10:18:02.644Z,13.30
2023-04-03T10:20:39.864Z,13.27
2023-04-03T10:23:21.103Z,13.16
2023-04-03T10:26:01.764Z,13.04
2023-04-03T10:28:38.126Z,13.14
2023-04-03T10:31:16.590Z,12.86
2023-04-03T10:33:57.938Z,13.11
2023-04-03T10:36:36.870Z,13.01
2023-04-03T10:39:15.131Z,13.21
2023-04-03T10:42:00.885Z,13.18
2023-04-03T10:44:53.075Z,13.18
2023-04-03T10:47:26.346Z,13.25
2023-04-03T10:50:03.188Z,13.05
2023-04-03T10:52:40.811Z,12.97
2023-04-03T10:55:26.649Z,12.84
2023-04-03T10:57:58.216Z,12.82
2023-04-03T11:00:38.466Z,13.05
2023-04-03T11:03:13.819Z,12.92
2023-04-03T11:05:44.962Z,13.02
2023-04-03T11:08:23.783Z,12.92
2023-04-03T11:10:53.584Z,12.74
2023-04-03T11:13:27.197Z,12.88
2023-04-03T11:15:56.519Z,12.72
2023-04-03T11:18:34.771Z,12.53
2023-04-03T11:21:06.827Z,12.43
2023-04-03T11:23:48.961Z,12.17
2023-04-03T11:26:21.930Z,11.89
2023-04-03T11:28:55.351Z,11.83
2023-04-03T11:31:35.671Z,11.55
2023-04-03T11:34:17.358Z,11.50
2023-04-03T11:36:48.980Z,11.68
2023-04-03T11:39:25.424Z,11.62
2023-04-03T11:42:06.899Z,11.60
2023-04-03T11:44:40.740Z,11.44
2023-04-03T11:47:10.272Z,11.33
2023-04-03T11:50:02.185Z,11.30
2023-04-03T11:53:06.073Z,11.17
2023-04-03T11:55:56.627Z,11.11
2023-04-03T11:58:27.377Z,11.08
2023-04-03T12:01:04.921Z,11.02
2023-04-03T12:04:08.653Z,11.04
2023-04-03T12:07:01.186Z,10.94
2023-04-03T12:09:33.674Z,10.96
2023-04-03T12:12:04.051Z,10.76
2023-04-03T12:14:32.027Z,10.75
2023-04-03T12:17:00.993Z,10.58
2023-04-03T12:19:44.488Z,10.55
2023-04-03T12:22:21.731Z,10.38
2023-04-03T12:24:52.775Z,10.24
2023-04-03T12:27:40.739Z,10.34
2023-04-03T12:30:25.048Z,10.31
2023-04-03T12:33:22.633Z,10.30
2023-04-03T12:36:06.844Z,10.30
2023-04-03T12:39:12.311Z,10.24
2023-04-03T12:41:48.601Z,10.27
2023-04-03T12:44:44.292Z,10.27
2023-04-03T12:47:25.794Z,10.24
2023-04-03T12:49:56.207Z,10.08
2023-04-03T12:52:37.481Z,10.24
2023-04-03T12:55:16.324Z,10.16
2023-04-03T12:57:44.287Z,10.04
2023-04-03T13:00:36.040Z,10.06
2023-04-03T13:03:06.057Z,10.05
2023-04-03T13:05:36.659Z,10.01
2023-04-03T13:08:08.632Z,9.91
2023-04-03T13:10:50.060Z,9.87
2023-04-03T13:13:18.368Z,9.72
2023-04-03T13:15:49.984Z,9.66
2023-04-03T13:18:33.243Z,9.67
2023-04-03T13:21:06.819Z,9.70
2023-04-03T13:23:37.819Z,9.61
2023-04-03T13:26:08.918Z,9.68
2023-04-03T13:28:37.847Z,9.63
2023-04-03T13:31:11.358Z,9.44
2023-04-03T13:33:40.154Z,9.40
2023-04-03T13:36:18.572Z,9.32
2023-04-03T13:38:47.027Z,9.27
2023-04-03T13:41:31.206Z,9.28
2023-04-03T13:44:16.437Z,9.25
2023-04-03T13:46:44.747Z,9.11
2023-04-03T13:49:24.343Z,9.08
2023-04-03T13:52:04.316Z,9.10
2023-04-03T13:54:37.886Z,8.99
2023-04-03T13:57:15.139Z,9.16
2023-04-03T13:59:44.229Z,8.94
2023-04-03T14:02:19.569Z,9.09
2023-04-03T14:04:54.232Z,8.93
2023-04-03T14:07:22.514Z,8.98
2023-04-03T14:09:51.063Z,8.91
2023-04-03T14:12:31.408Z,8.98
2023-04-03T14:15:00.886Z,8.97
2023-04-03T14:17:29.537Z,9.05
2023-04-03T14:19:58.865Z,8.94
2023-04-03T14:22:30.485Z,9.00
2023-04-03T14:24:58.820Z,8.92
2023-04-03T14:27:30.331Z,9.18
2023-04-03T14:30:00.492Z,9.06
2023-04-03T14:32:28.823Z,9.05
2023-04-03T14:34:58.109Z,9.06
2023-04-03T14:37:28.924Z,8.94
2023-04-03T14:39:59.348Z,8.98
2023-04-03T14:42:31.948Z,8.89
2023-04-03T14:45:00.980Z,8.92
2023-04-03T14:47:32.428Z,8.89
2023-04-03T14:50:01.911Z,8.85
2023-04-03T14:52:32.694Z,8.82
2023-04-03T14:55:02.257Z,8.76
2023-04-03T14:57:32.310Z,8.72
2023-04-03T15:00:01.773Z,8.56
2023-04-03T15:02:32.466Z,8.67
2023-04-03T15:05:03.963Z,8.67
2023-04-03T15:07:34.616Z,8.57
2023-04-03T15:10:12.285Z,8.72
2023-04-03T15:12:41.670Z,8.52
2023-04-03T15:15:12.169Z,8.46
2023-04-03T15:17:41.060Z,8.58
2023-04-03T15:20:15.670Z,8.60
2023-04-03T15:22:43.817Z,8.63
2023-04-03T15:25:12.859Z,8.55
2023-04-03T15:27:42.524Z,8.52
2023-04-03T15:30:18.824Z,8.55
2023-04-03T15:32:47.092Z,8.56
2023-04-03T15:35:15.243Z,8.52
2023-04-03T15:37:43.686Z,8.45
2023-04-03T15:40:12.409Z,8.48
2023-04-03T15:42:42.500Z,8.44
2023-04-03T15:45:11.280Z,8.45
2023-04-03T15:47:39.689Z,8.55
2023-04-03T15:50:09.345Z,8.55
2023-04-03T15:52:38.827Z,8.58
2023-04-03T15:55:08.136Z,8.58
2023-04-03T16:00:13.497Z,8.50
2023-04-03T16:02:42.854Z,8.57
2023-04-03T16:05:12.246Z,8.49
2023-04-03T16:07:41.052Z,8.51
2023-04-03T16:10:11.095Z,8.42
2023-04-03T16:12:39.417Z,8.37
2023-04-03T16:15:08.636Z,8.35
2023-04-03T16:17:39.673Z,8.46
2023-04-03T16:20:10.492Z,8.31
2023-04-03T16:22:39.433Z,8.26
2023-04-03T16:25:09.159Z,8.34
2023-04-03T16:27:39.071Z,8.46
2023-04-03T16:30:09.001Z,8.55
2023-04-03T16:32:40.805Z,8.52
2023-04-03T16:35:11.847Z,8.52
2023-04-03T16:37:41.715Z,8.52
2023-04-03T16:40:10.747Z,8.55
2023-04-03T16:42:38.656Z,8.55
2023-04-03T16:45:08.467Z,8.63
2023-04-03T16:47:36.786Z,8.58
2023-04-03T16:50:07.870Z,8.58
2023-04-03T16:52:36.033Z,8.61
2023-04-03T16:55:04.419Z,8.54
2023-04-03T16:57:32.384Z,8.50
2023-04-03T17:00:00.481Z,8.38
2023-04-03T17:02:28.696Z,8.50
2023-04-03T17:04:56.868Z,8.45
2023-04-03T17:07:27.228Z,8.41
2023-04-03T17:09:55.249Z,8.50
2023-04-03T17:12:23.653Z,8.46
2023-04-03T17:14:51.619Z,8.47
2023-04-03T17:17:23.433Z,8.44
2023-04-03T17:19:51.611Z,8.37
2023-04-03T17:22:19.535Z,8.30
2023-04-03T17:24:48.854Z,8.32
2023-04-03T17:27:16.802Z,8.35
2023-04-03T17:29:44.807Z,8.26
2023-04-03T17:32:12.780Z,8.27
2023-04-03T17:34:40.710Z,8.29
2023-04-03T17:37:08.812Z,8.23
2023-04-03T17:39:36.830Z,8.16
2023-04-03T17:42:06.328Z,8.12
2023-04-03T17:44:34.642Z,8.29
2023-04-03T17:47:03.084Z,8.26
2023-04-03T17:49:31.594Z,8.29
2023-04-03T17:51:59.496Z,8.23
2023-04-03T17:54:27.547Z,8.37
2023-04-03T17:56:55.715Z,8.27
2023-04-03T17:59:25.161Z,8.37
2023-04-03T18:01:53.625Z,8.26
2023-04-03T18:04:21.702Z,8.27
2023-04-03T18:06:52.874Z,8.37
2023-04-03T18:09:24.397Z,8.39
2023-04-03T18:11:54.518Z,8.17
2023-04-03T18:14:26.884Z,8.11
2023-04-03T18:16:57.369Z,8.17
2023-04-03T18:19:27.167Z,8.19
2023-04-03T18:21:59.376Z,8.19
2023-04-03T18:24:28.237Z,8.17
2023-04-03T18:27:00.975Z,8.18
2023-04-03T18:29:32.034Z,8.12
2023-04-03T18:32:03.891Z,7.98
2023-04-03T18:34:32.597Z,7.89
2023-04-03T18:37:01.008Z,8.06
2023-04-03T18:39:29.059Z,8.08
2023-04-03T18:41:59.418Z,8.03
2023-04-03T18:44:29.270Z,8.05
2023-04-03T18:46:59.920Z,7.94
2023-04-03T18:49:30.144Z,8.01
2023-04-03T18:51:58.157Z,8.05
2023-04-03T18:54:26.014Z,8.06
2023-04-03T18:56:54.009Z,7.97
2023-04-03T18:59:22.107Z,8.02
2023-04-03T19:01:50.141Z,7.88
2023-04-03T19:04:19.681Z,7.90
2023-04-03T19:06:47.738Z,7.88
2023-04-03T19:09:15.977Z,7.70
2023-04-03T19:11:43.927Z,7.84
2023-04-03T19:14:16.562Z,7.85
2023-04-03T19:16:45.322Z,7.94
2023-04-03T19:19:13.433Z,7.93
2023-04-03T19:21:43.116Z,7.99
2023-04-03T19:24:11.994Z,7.87
2023-04-03T19:26:40.956Z,7.99
2023-04-03T19:29:09.004Z,7.99
2023-04-03T19:31:38.166Z,7.97
2023-04-03T19:34:07.231Z,7.96
2023-04-03T19:36:36.049Z,7.99
2023-04-03T19:39:06.323Z,7.94
2023-04-03T19:41:37.853Z,7.85
2023-04-03T19:44:07.797Z,7.92
2023-04-03T19:46:36.609Z,7.93
2023-04-03T19:49:04.707Z,7.89
2023-04-03T19:51:33.115Z,7.97
2023-04-03T19:54:01.221Z,7.87
2023-04-03T19:56:30.886Z,7.83
2023-04-03T19:58:58.857Z,7.90
2023-04-03T20:01:27.932Z,7.82
2023-04-03T20:03:55.908Z,7.66
2023-04-03T20:06:23.999Z,7.75
2023-04-03T20:08:51.969Z,7.79
2023-04-03T20:11:20.204Z,7.66
2023-04-03T20:13:51.603Z,7.69
2023-04-03T20:16:22.378Z,7.67
2023-04-03T20:18:52.444Z,7.66
2023-04-03T20:21:20.516Z,7.67
2023-04-03T20:23:48.388Z,7.67
2023-04-03T20:26:23.300Z,7.54
2023-04-03T20:28:52.789Z,7.76
2023-04-03T20:31:21.527Z,7.77
2023-04-03T20:33:50.516Z,7.83
2023-04-03T20:36:19.958Z,7.87
2023-04-03T20:38:48.972Z,7.82
2023-04-03T20:41:17.643Z,7.90
2023-04-03T20:43:46.367Z,7.89
2023-04-03T20:46:20.124Z,7.84
2023-04-03T20:48:49.229Z,7.84
2023-04-03T20:51:19.441Z,7.87
2023-04-03T20:53:48.173Z,7.87
2023-04-03T20:56:16.485Z,7.75
2023-04-03T20:58:46.795Z,7.89
2023-04-03T21:01:19.105Z,7.94
2023-04-03T21:03:48.763Z,7.83
2023-04-03T21:06:55.597Z,7.89
2023-04-03T21:10:01.395Z,7.77
2023-04-03T21:13:06.553Z,7.89
2023-04-03T21:15:51.945Z,7.92
2023-04-03T21:18:51.788Z,7.90
2023-04-03T21:21:22.712Z,7.90
2023-04-03T21:23:51.890Z,7.97
2023-04-03T21:26:22.011Z,8.05
2023-04-03T21:28:52.086Z,8.06
2023-04-03T21:31:21.463Z,7.94
2023-04-03T21:33:50.805Z,7.97
2023-04-03T21:36:18.664Z,8.02
2023-04-03T21:38:47.799Z,7.95
2023-04-03T21:41:17.569Z,8.00
2023-04-03T21:43:47.436Z,8.07
2023-04-03T21:46:15.954Z,8.04
2023-04-03T21:48:45.664Z,8.07
2023-04-03T21:51:15.526Z,8.01
2023-04-03T21:53:44.069Z,7.89
2023-04-03T21:56:12.857Z,7.98
2023-04-03T21:58:41.053Z,8.02
2023-04-03T22:01:13.325Z,8.03
2023-04-03T22:03:42.634Z,8.05
2023-04-03T22:06:11.174Z,8.02
2023-04-03T22:08:41.274Z,8.01
2023-04-03T22:11:11.085Z,7.92
2023-04-03T22:13:39.001Z,8.05
2023-04-03T22:16:07.522Z,7.83
2023-04-03T22:18:36.166Z,7.98
2023-04-03T22:21:04.268Z,8.05
2023-04-03T22:23:32.123Z,8.04
2023-04-03T22:26:03.283Z,7.96
2023-04-03T22:28:32.652Z,7.92
2023-04-03T22:31:02.570Z,8.01
2023-04-03T22:33:30.900Z,8.01
2023-04-03T22:35:58.853Z,7.94
2023-04-03T22:38:26.739Z,7.83
2023-04-03T22:40:59.583Z,7.98
2023-04-03T22:43:30.411Z,7.99
2023-04-03T22:45:58.721Z,7.94
2023-04-03T22:48:27.216Z,7.93
2023-04-03T22:50:56.076Z,7.89
2023-04-03T22:53:24.328Z,7.88
2023-04-03T22:55:56.492Z,7.81
2023-04-03T22:58:26.500Z,7.91
2023-04-03T23:00:57.524Z,7.84
2023-04-03T23:03:25.997Z,7.85
2023-04-03T23:05:56.260Z,7.88
2023-04-03T23:08:24.216Z,7.91
2023-04-03T23:10:56.078Z,7.88
2023-04-03T23:13:24.116Z,7.83
2023-04-03T23:15:57.352Z,7.81
2023-04-03T23:18:25.813Z,7.80
2023-04-03T23:20:55.331Z,7.79
2023-04-03T23:23:23.992Z,7.80
2023-04-03T23:25:54.882Z,7.82
2023-04-03T23:28:22.866Z,7.73
2023-04-03T23:30:51.821Z,7.82
2023-04-03T23:33:21.489Z,7.81
2023-04-03T23:35:49.478Z,7.71
2023-04-03T23:38:17.678Z,7.76
2023-04-03T23:40:47.185Z,7.83
2023-04-03T23:43:15.632Z,7.88
2023-04-03T23:45:45.858Z,7.90
2023-04-03T23:48:14.301Z,7.79
2023-04-03T23:50:44.860Z,7.82
2023-04-03T23:53:13.673Z,7.89
2023-04-03T23:55:41.867Z,7.87
2023-04-03T23:58:10.713Z,7.87
